createdAt,value
2022-09-19T00:01:20.681Z,2.58
2022-09-19T00:03:52.516Z,2.80
2022-09-19T00:06:19.424Z,3.25
2022-09-19T00:08:46.917Z,3.42
2022-09-19T00:11:15.700Z,4.03
2022-09-19T00:13:45.400Z,2.55
2022-09-19T00:16:13.894Z,2.70
2022-09-19T00:18:40.486Z,2.92
2022-09-19T00:21:07.066Z,2.95
2022-09-19T00:24:05.934Z,2.35
2022-09-19T00:26:32.615Z,2.83
2022-09-19T00:28:59.259Z,3.83
2022-09-19T00:31:25.840Z,4.43
2022-09-19T00:33:52.960Z,3.60
2022-09-19T00:36:20.502Z,3.50
2022-09-19T00:38:47.044Z,3.70
2022-09-19T00:41:19.478Z,4.38
2022-09-19T00:43:51.328Z,3.63
2022-09-19T00:46:19.254Z,3.85
2022-09-19T00:48:48.607Z,4.50
2022-09-19T00:51:40.972Z,4.00
2022-09-19T00:54:13.859Z,3.80
2022-09-19T00:56:43.954Z,3.30
2022-09-19T00:59:11.453Z,3.85
2022-09-19T01:01:38.963Z,3.45
2022-09-19T01:04:15.633Z,4.53
2022-09-19T01:06:51.918Z,3.10
2022-09-19T01:09:37.005Z,4.65
2022-09-19T01:12:27.686Z,3.70
2022-09-19T01:15:20.814Z,3.53
2022-09-19T01:17:53.270Z,3.58
2022-09-19T01:20:28.965Z,3.65
2022-09-19T01:23:20.368Z,3.88
2022-09-19T01:26:25.859Z,3.38
2022-09-19T01:28:57.876Z,3.78
2022-09-19T01:31:30.836Z,3.78
2022-09-19T01:34:04.173Z,3.10
2022-09-19T01:36:37.963Z,4.20
2022-09-19T01:39:06.506Z,4.10
2022-09-19T01:41:33.627Z,3.10
2022-09-19T01:44:05.527Z,3.58
2022-09-19T01:46:53.600Z,3.35
2022-09-19T01:49:45.851Z,3.28
2022-09-19T01:52:36.093Z,3.55
2022-09-19T01:55:11.683Z,3.10
2022-09-19T01:58:17.184Z,3.15
2022-09-19T02:00:50.571Z,2.97
2022-09-19T02:03:45.858Z,3.05
2022-09-19T02:06:23.769Z,3.72
2022-09-19T02:09:07.584Z,3.63
2022-09-19T02:11:34.176Z,3.45
2022-09-19T02:14:11.639Z,3.47
2022-09-19T02:16:46.690Z,3.90
2022-09-19T02:19:24.386Z,3.83
2022-09-19T02:21:55.662Z,3.40
2022-09-19T02:24:31.638Z,4.10
2022-09-19T02:27:10.216Z,3.88
2022-09-19T02:29:49.427Z,3.63
2022-09-19T02:32:19.078Z,3.33
2022-09-19T02:34:50.103Z,3.58
2022-09-19T02:37:31.715Z,4.57
2022-09-19T02:40:09.087Z,4.68
2022-09-19T02:42:49.914Z,4.57
2022-09-19T02:45:38.240Z,4.80
2022-09-19T02:48:34.668Z,4.20
2022-09-19T02:51:26.285Z,4.18
2022-09-19T02:56:28.399Z,3.30
2022-09-19T02:58:59.151Z,4.10
2022-09-19T03:01:28.790Z,3.33
2022-09-19T03:04:13.904Z,3.95
2022-09-19T03:06:56.639Z,3.70
2022-09-19T03:09:25.682Z,3.45
2022-09-19T03:12:03.568Z,3.60
2022-09-19T03:14:31.828Z,3.58
2022-09-19T03:16:59.601Z,3.47
2022-09-19T03:19:26.176Z,4.20
2022-09-19T03:21:54.235Z,3.67
2022-09-19T03:24:21.410Z,3.28
2022-09-19T03:26:48.683Z,3.15
2022-09-19T03:29:16.197Z,3.40
2022-09-19T03:31:46.108Z,3.53
2022-09-19T03:34:13.600Z,4.15
2022-09-19T03:36:41.587Z,4.07
2022-09-19T03:39:08.588Z,4.60
2022-09-19T03:41:35.789Z,3.42
2022-09-19T03:44:03.057Z,4.82
2022-09-19T03:46:32.874Z,3.65
2022-09-19T03:49:01.336Z,3.65
2022-09-19T03:51:28.574Z,3.60
2022-09-19T03:53:55.124Z,3.00
2022-09-19T03:56:21.689Z,4.20
2022-09-19T03:58:48.275Z,4.40
2022-09-19T04:01:19.127Z,4.13
2022-09-19T04:03:47.542Z,4.35
2022-09-19T04:06:14.126Z,4.07
2022-09-19T04:08:40.670Z,4.75
2022-09-19T04:11:07.244Z,4.50
2022-09-19T04:13:34.914Z,4.38
2022-09-19T04:16:01.949Z,4.90
2022-09-19T04:18:29.230Z,5.22
2022-09-19T04:20:56.788Z,4.70
2022-09-19T04:23:24.678Z,4.97
2022-09-19T04:25:51.163Z,5.43
2022-09-19T04:28:18.699Z,4.97
2022-09-19T04:30:45.650Z,5.03
2022-09-19T04:33:13.896Z,5.03
2022-09-19T04:35:40.884Z,4.55
2022-09-19T04:38:09.720Z,4.82
2022-09-19T04:40:44.038Z,4.55
2022-09-19T04:43:11.912Z,3.97
2022-09-19T04:45:41.013Z,4.95
2022-09-19T04:48:07.619Z,5.00
2022-09-19T04:50:34.973Z,4.65
2022-09-19T04:53:01.933Z,4.40
2022-09-19T04:55:28.839Z,4.85
2022-09-19T04:57:59.644Z,4.07
2022-09-19T05:00:46.474Z,4.10
2022-09-19T05:03:16.181Z,4.28
2022-09-19T05:05:45.705Z,4.32
2022-09-19T05:08:19.744Z,3.83
2022-09-19T05:10:49.300Z,4.32
2022-09-19T05:13:16.099Z,5.10
2022-09-19T05:15:45.187Z,4.13
2022-09-19T05:18:11.886Z,5.55
2022-09-19T05:20:39.180Z,4.88
2022-09-19T05:23:05.977Z,5.97
2022-09-19T05:25:37.444Z,5.10
2022-09-19T05:28:06.179Z,5.40
2022-09-19T05:30:38.294Z,4.28
2022-09-19T05:33:05.647Z,5.10
2022-09-19T05:35:32.739Z,5.28
2022-09-19T05:37:59.411Z,4.20
2022-09-19T05:40:26.943Z,4.40
2022-09-19T05:43:01.454Z,4.25
2022-09-19T05:45:28.467Z,4.68
2022-09-19T05:48:05.555Z,4.68
2022-09-19T05:50:32.920Z,3.83
2022-09-19T05:53:17.995Z,4.15
2022-09-19T05:55:44.814Z,4.47
2022-09-19T05:58:11.406Z,4.60
2022-09-19T06:00:38.981Z,4.25
2022-09-19T06:03:07.202Z,3.05
2022-09-19T06:05:41.862Z,4.10
2022-09-19T06:08:08.558Z,3.50
2022-09-19T06:10:40.214Z,4.13
2022-09-19T06:13:08.025Z,4.10
2022-09-19T06:15:35.299Z,4.05
2022-09-19T06:18:01.850Z,4.38
2022-09-19T06:20:28.802Z,4.47
2022-09-19T06:23:01.766Z,4.75
2022-09-19T06:25:29.935Z,4.47
2022-09-19T06:27:57.253Z,4.90
2022-09-19T06:30:24.328Z,5.25
2022-09-19T06:32:55.042Z,4.57
2022-09-19T06:35:23.435Z,4.60
2022-09-19T06:37:50.098Z,4.40
2022-09-19T06:40:23.859Z,4.20
2022-09-19T06:42:50.436Z,3.88
2022-09-19T06:45:17.281Z,4.07
2022-09-19T06:47:43.792Z,4.53
2022-09-19T06:50:15.006Z,3.70
2022-09-19T06:52:46.458Z,4.53
2022-09-19T06:57:39.390Z,3.47
2022-09-19T07:00:06.614Z,3.40
2022-09-19T07:02:33.229Z,3.53
2022-09-19T07:04:59.783Z,3.25
2022-09-19T07:07:26.300Z,3.85
2022-09-19T07:09:52.870Z,3.58
2022-09-19T07:12:20.398Z,3.38
2022-09-19T07:14:47.103Z,3.40
2022-09-19T07:17:17.221Z,3.30
2022-09-19T07:19:45.650Z,3.88
2022-09-19T07:22:12.228Z,3.95
2022-09-19T07:24:38.763Z,3.25
2022-09-19T07:27:05.326Z,4.00
2022-09-19T07:29:31.844Z,3.80
2022-09-19T07:31:58.494Z,4.50
2022-09-19T07:34:25.102Z,4.43
2022-09-19T07:36:51.627Z,4.22
2022-09-19T07:39:23.695Z,5.20
2022-09-19T07:41:50.844Z,5.03
2022-09-19T07:44:17.637Z,4.75
2022-09-19T07:47:04.281Z,4.47
2022-09-19T07:49:30.841Z,5.07
2022-09-19T07:51:57.414Z,4.60
2022-09-19T07:54:23.948Z,4.53
2022-09-19T07:56:50.533Z,4.45
2022-09-19T07:59:19.837Z,4.72
2022-09-19T08:01:46.641Z,4.38
2022-09-19T08:04:13.282Z,3.38
2022-09-19T08:06:40.906Z,3.78
2022-09-19T08:09:07.476Z,3.33
2022-09-19T08:11:37.152Z,3.20
2022-09-19T08:14:04.234Z,3.33
2022-09-19T08:16:30.860Z,3.42
2022-09-19T08:18:57.424Z,3.17
2022-09-19T08:21:25.013Z,4.20
2022-09-19T08:23:51.828Z,4.15
2022-09-19T08:26:18.553Z,5.00
2022-09-19T08:28:45.068Z,4.35
2022-09-19T08:31:11.699Z,4.25
2022-09-19T08:33:39.060Z,4.75
2022-09-19T08:36:05.888Z,3.95
2022-09-19T08:38:32.458Z,3.78
2022-09-19T08:41:14.214Z,3.70
2022-09-19T08:43:46.726Z,3.45
2022-09-19T08:46:29.888Z,2.88
2022-09-19T08:49:00.192Z,2.90
2022-09-19T08:51:26.924Z,2.63
2022-09-19T08:53:57.839Z,2.40
2022-09-19T08:56:24.390Z,2.55
2022-09-19T08:59:02.596Z,2.95
2022-09-19T09:01:34.779Z,2.35
2022-09-19T09:04:13.114Z,2.38
2022-09-19T09:06:42.700Z,2.05
2022-09-19T09:09:27.348Z,1.92
2022-09-19T09:12:15.801Z,1.80
2022-09-19T09:15:19.344Z,1.75
2022-09-19T09:18:21.736Z,1.85
2022-09-19T09:20:59.199Z,1.45
2022-09-19T09:23:31.463Z,1.83
2022-09-19T09:26:07.859Z,1.45
2022-09-19T09:28:58.428Z,2.58
2022-09-19T09:31:44.782Z,1.65
2022-09-19T09:34:23.601Z,1.63
2022-09-19T09:36:56.238Z,1.40
2022-09-19T09:39:31.328Z,1.17
2022-09-19T09:42:02.479Z,1.92
2022-09-19T09:44:49.161Z,1.23
2022-09-19T09:47:59.446Z,1.50
2022-09-19T09:50:44.058Z,1.10
2022-09-19T09:53:50.045Z,1.20
2022-09-19T09:56:45.588Z,1.45
2022-09-19T09:59:54.721Z,1.10
2022-09-19T10:03:08.078Z,0.95
2022-09-19T10:05:38.565Z,1.08
2022-09-19T10:08:31.965Z,1.35
2022-09-19T10:11:03.497Z,1.50
2022-09-19T10:13:31.961Z,1.55
2022-09-19T10:16:04.159Z,1.08
2022-09-19T10:18:55.630Z,0.60
2022-09-19T10:21:22.198Z,1.42
2022-09-19T10:23:49.264Z,1.55
2022-09-19T10:26:18.085Z,1.13
2022-09-19T10:28:52.565Z,0.95
2022-09-19T10:31:33.255Z,1.63
2022-09-19T10:34:05.618Z,0.70
2022-09-19T10:36:38.509Z,0.73
2022-09-19T10:39:13.758Z,1.33
2022-09-19T10:41:42.284Z,0.68
2022-09-19T10:44:18.755Z,1.25
2022-09-19T10:46:48.072Z,0.60
2022-09-19T10:49:20.347Z,0.65
2022-09-19T10:51:48.450Z,0.73
2022-09-19T10:54:35.136Z,0.82
2022-09-19T10:57:02.410Z,0.60
2022-09-19T10:59:29.754Z,0.90
2022-09-19T11:02:25.035Z,0.50
2022-09-19T11:05:01.853Z,0.50
2022-09-19T11:07:31.529Z,0.43
2022-09-19T11:10:05.152Z,0.55
2022-09-19T11:12:31.986Z,1.17
2022-09-19T11:14:59.653Z,1.25
2022-09-19T11:17:31.866Z,0.90
2022-09-19T11:20:01.597Z,1.20
2022-09-19T11:22:57.774Z,1.42
2022-09-19T11:25:34.040Z,0.98
2022-09-19T11:28:13.784Z,1.27
2022-09-19T11:31:02.755Z,1.15
2022-09-19T11:36:48.175Z,1.40
2022-09-19T11:40:03.914Z,1.13
2022-09-19T11:42:56.570Z,1.63
2022-09-19T11:45:23.984Z,1.00
2022-09-19T11:48:29.087Z,1.20
2022-09-19T11:51:00.234Z,0.85
2022-09-19T11:56:13.072Z,0.85
2022-09-19T11:58:57.292Z,1.73
2022-09-19T12:01:54.253Z,0.90
2022-09-19T12:04:53.749Z,1.33
2022-09-19T12:07:38.136Z,0.43
2022-09-19T12:10:12.086Z,1.23
2022-09-19T12:12:43.861Z,1.10
2022-09-19T12:15:23.920Z,0.90
2022-09-19T12:18:43.087Z,0.95
2022-09-19T12:21:10.747Z,1.17
2022-09-19T12:24:02.906Z,1.08
2022-09-19T12:26:56.578Z,1.02
2022-09-19T12:29:39.755Z,1.33
2022-09-19T12:32:16.648Z,0.75
2022-09-19T12:34:50.296Z,1.20
2022-09-19T12:37:23.969Z,0.95
2022-09-19T12:39:58.525Z,1.17
2022-09-19T12:42:50.989Z,0.70
2022-09-19T12:45:43.704Z,0.68
2022-09-19T12:48:16.108Z,0.88
2022-09-19T12:50:50.444Z,0.93
2022-09-19T12:53:23.836Z,0.63
2022-09-19T12:55:57.662Z,0.80
2022-09-19T12:58:33.606Z,0.60
2022-09-19T13:01:20.474Z,0.88
2022-09-19T13:03:53.047Z,0.70
2022-09-19T13:06:22.620Z,0.68
2022-09-19T13:08:53.716Z,0.60
2022-09-19T13:11:42.048Z,0.40
2022-09-19T13:14:16.423Z,0.40
2022-09-19T13:17:02.538Z,0.40
2022-09-19T13:20:01.019Z,0.32
2022-09-19T13:22:47.196Z,0.30
2022-09-19T13:25:17.511Z,0.65
2022-09-19T13:27:46.572Z,0.30
2022-09-19T13:30:46.512Z,0.40
2022-09-19T13:33:21.380Z,0.73
2022-09-19T13:35:50.921Z,0.40
2022-09-19T13:38:26.894Z,0.43
2022-09-19T13:41:11.182Z,0.40
2022-09-19T13:43:46.109Z,0.50
2022-09-19T13:46:25.585Z,0.30
2022-09-19T13:49:30.493Z,0.30
2022-09-19T13:52:00.670Z,0.30
2022-09-19T13:54:27.788Z,0.52
2022-09-19T13:57:03.073Z,0.63
2022-09-19T13:59:46.278Z,0.30
2022-09-19T14:02:12.957Z,0.60
2022-09-19T14:05:05.818Z,0.50
2022-09-19T14:10:31.498Z,0.30
2022-09-19T14:13:00.964Z,0.20
2022-09-19T14:15:30.327Z,0.40
2022-09-19T14:18:09.029Z,0.52
2022-09-19T14:21:01.883Z,0.50
2022-09-19T14:23:36.151Z,0.50
2022-09-19T14:26:15.178Z,0.88
2022-09-19T14:29:17.282Z,0.55
2022-09-19T14:32:11.806Z,0.38
2022-09-19T14:34:52.545Z,0.68
2022-09-19T14:38:06.882Z,0.98
2022-09-19T14:40:34.717Z,0.50
2022-09-19T14:43:25.986Z,0.65
2022-09-19T14:46:15.128Z,0.70
2022-09-19T14:49:06.891Z,0.50
2022-09-19T14:51:39.378Z,0.50
2022-09-19T14:54:17.069Z,0.70
2022-09-19T14:56:54.667Z,0.70
2022-09-19T14:59:23.057Z,0.88
2022-09-19T15:01:54.434Z,0.70
2022-09-19T15:06:57.704Z,0.50
2022-09-19T15:09:28.244Z,0.50
2022-09-19T15:11:57.200Z,0.50
2022-09-19T15:14:25.335Z,0.30
2022-09-19T15:17:10.681Z,0.35
2022-09-19T15:19:48.607Z,0.38
2022-09-19T15:22:25.573Z,0.40
2022-09-19T15:24:54.001Z,0.63
2022-09-19T15:27:24.187Z,0.40
2022-09-19T15:29:55.183Z,0.20
2022-09-19T15:35:06.696Z,0.28
2022-09-19T15:37:33.341Z,0.30
2022-09-19T15:40:03.974Z,0.40
2022-09-19T15:42:30.681Z,0.20
2022-09-19T15:44:58.491Z,0.25
2022-09-19T15:47:28.446Z,0.17
2022-09-19T15:49:58.756Z,0.30
2022-09-19T15:52:34.946Z,0.30
2022-09-19T15:55:02.390Z,0.20
2022-09-19T15:57:39.592Z,0.28
2022-09-19T16:00:26.731Z,0.60
2022-09-19T16:07:43.174Z,0.60
2022-09-19T16:10:16.041Z,0.30
2022-09-19T16:12:44.726Z,0.17
2022-09-19T16:15:34.369Z,0.17
2022-09-19T16:18:04.461Z,0.52
2022-09-19T16:20:31.193Z,0.30
2022-09-19T16:23:03.312Z,0.20
2022-09-19T16:25:40.210Z,0.32
2022-09-19T16:28:20.089Z,0.60
2022-09-19T16:31:18.414Z,0.73
2022-09-19T16:34:07.399Z,0.20
2022-09-19T16:36:49.520Z,0.40
2022-09-19T16:39:32.661Z,0.30
2022-09-19T16:42:00.636Z,0.40
2022-09-19T16:44:27.998Z,0.45
2022-09-19T16:46:58.713Z,0.22
2022-09-19T16:49:25.648Z,0.25
2022-09-19T16:51:53.083Z,0.20
2022-09-19T16:54:19.947Z,0.40
2022-09-19T16:56:47.769Z,0.35
2022-09-19T16:59:16.238Z,0.20
2022-09-19T17:01:45.961Z,0.30
2022-09-19T17:04:19.818Z,0.43
2022-09-19T17:06:47.184Z,0.30
2022-09-19T17:09:14.241Z,0.30
2022-09-19T17:11:40.757Z,0.30
2022-09-19T17:14:21.200Z,0.50
2022-09-19T17:16:48.049Z,0.52
2022-09-19T17:19:14.676Z,0.50
2022-09-19T17:21:42.374Z,0.32
2022-09-19T17:24:12.328Z,0.40
2022-09-19T17:26:38.927Z,0.55
2022-09-19T17:29:05.416Z,0.47
2022-09-19T17:31:32.203Z,0.63
2022-09-19T17:33:58.762Z,0.50
2022-09-19T17:36:25.324Z,0.68
2022-09-19T17:38:52.214Z,0.50
2022-09-19T17:41:19.492Z,0.77
2022-09-19T17:43:46.027Z,1.00
2022-09-19T17:46:13.665Z,1.02
2022-09-19T17:48:40.375Z,0.60
2022-09-19T17:51:12.516Z,1.35
2022-09-19T17:53:40.931Z,1.20
2022-09-19T17:56:22.930Z,1.13
2022-09-19T17:58:50.545Z,1.67
2022-09-19T18:01:36.864Z,1.30
2022-09-19T18:04:04.106Z,0.80
2022-09-19T18:06:33.440Z,0.80
2022-09-19T18:09:05.651Z,0.90
2022-09-19T18:11:32.907Z,1.42
2022-09-19T18:14:03.235Z,1.02
2022-09-19T18:16:31.788Z,0.60
2022-09-19T18:19:00.215Z,0.80
2022-09-19T18:21:28.403Z,0.70
2022-09-19T18:23:57.288Z,0.73
2022-09-19T18:26:27.468Z,0.77
2022-09-19T18:28:56.659Z,0.55
2022-09-19T18:31:24.167Z,0.70
2022-09-19T18:33:51.250Z,0.90
2022-09-19T18:36:20.488Z,0.70
2022-09-19T18:38:48.927Z,0.80
2022-09-19T18:41:15.611Z,1.00
2022-09-19T18:43:44.302Z,1.00
2022-09-19T18:46:16.804Z,1.50
2022-09-19T18:48:43.567Z,0.70
2022-09-19T18:51:15.927Z,0.93
2022-09-19T18:53:43.580Z,0.90
2022-09-19T18:56:11.774Z,0.80
2022-09-19T18:58:39.209Z,0.95
2022-09-19T19:01:14.379Z,1.23
2022-09-19T19:03:46.055Z,1.20
2022-09-19T19:08:50.157Z,1.13
2022-09-19T19:11:19.545Z,1.20
2022-09-19T19:13:48.337Z,0.90
2022-09-19T19:16:17.463Z,1.40
2022-09-19T19:18:50.788Z,2.00
2022-09-19T19:21:21.040Z,2.10
2022-09-19T19:23:48.614Z,2.55
2022-09-19T19:26:15.709Z,1.60
2022-09-19T19:28:42.726Z,2.47
2022-09-19T19:31:09.336Z,1.50
2022-09-19T19:33:35.956Z,2.30
2022-09-19T19:36:05.295Z,1.60
2022-09-19T19:38:33.662Z,1.88
2022-09-19T19:41:02.775Z,3.03
2022-09-19T19:43:30.432Z,2.08
2022-09-19T19:46:03.000Z,1.77
2022-09-19T19:48:30.519Z,2.10
2022-09-19T19:50:59.162Z,1.98
2022-09-19T19:53:27.546Z,2.00
2022-09-19T19:56:01.497Z,1.90
2022-09-19T19:58:28.620Z,3.10
2022-09-19T20:01:17.705Z,1.80
2022-09-19T20:03:55.244Z,1.63
2022-09-19T20:06:26.810Z,1.58
2022-09-19T20:08:54.688Z,1.50
2022-09-19T20:11:21.648Z,1.20
2022-09-19T20:13:52.916Z,1.90
2022-09-19T20:16:22.860Z,1.25
2022-09-19T20:18:52.157Z,1.30
2022-09-19T20:21:21.131Z,0.95
2022-09-19T20:23:48.358Z,1.13
2022-09-19T20:26:20.945Z,0.95
2022-09-19T20:28:52.757Z,1.50
2022-09-19T20:31:26.208Z,1.13
2022-09-19T20:33:54.007Z,1.10
2022-09-19T20:36:20.826Z,1.17
2022-09-19T20:38:48.907Z,1.38
2022-09-19T20:41:15.490Z,1.10
2022-09-19T20:43:42.058Z,1.30
2022-09-19T20:46:14.363Z,0.93
2022-09-19T20:48:41.102Z,1.10
2022-09-19T20:51:08.683Z,1.25
2022-09-19T20:53:37.807Z,1.40
2022-09-19T20:56:05.907Z,1.58
2022-09-19T20:58:32.848Z,0.95
2022-09-19T21:01:17.633Z,0.85
2022-09-19T21:03:44.247Z,1.50
2022-09-19T21:06:11.837Z,1.15
2022-09-19T21:08:40.251Z,2.03
2022-09-19T21:11:08.764Z,1.27
2022-09-19T21:13:37.684Z,1.48
2022-09-19T21:16:05.235Z,1.10
2022-09-19T21:18:32.126Z,0.98
2022-09-19T21:21:08.790Z,1.10
2022-09-19T21:23:39.184Z,1.45
2022-09-19T21:26:10.131Z,1.10
2022-09-19T21:28:37.462Z,1.33
2022-09-19T21:31:04.135Z,1.42
2022-09-19T21:33:31.274Z,1.05
2022-09-19T21:35:58.928Z,0.98
2022-09-19T21:38:26.816Z,0.82
2022-09-19T21:41:01.166Z,1.10
2022-09-19T21:43:30.398Z,1.20
2022-09-19T21:46:14.652Z,0.90
2022-09-19T21:48:43.886Z,1.15
2022-09-19T21:51:18.716Z,1.10
2022-09-19T21:53:46.268Z,1.20
2022-09-19T21:56:13.053Z,1.15
2022-09-19T21:58:40.572Z,1.08
2022-09-19T22:01:10.220Z,1.30
2022-09-19T22:03:36.824Z,1.20
2022-09-19T22:06:03.915Z,1.00
2022-09-19T22:08:31.378Z,1.35
2022-09-19T22:11:02.300Z,1.55
2022-09-19T22:13:30.742Z,1.25
2022-09-19T22:15:59.155Z,1.08
2022-09-19T22:18:27.209Z,1.10
2022-09-19T22:20:54.368Z,1.40
2022-09-19T22:23:21.448Z,1.40
2022-09-19T22:25:48.080Z,1.65
2022-09-19T22:28:15.619Z,1.60
2022-09-19T22:30:42.385Z,1.95
2022-09-19T22:33:08.960Z,1.90
2022-09-19T22:35:35.468Z,1.35
2022-09-19T22:38:02.039Z,1.88
2022-09-19T22:40:29.192Z,1.90
2022-09-19T22:42:56.726Z,1.63
2022-09-19T22:45:23.223Z,1.58
2022-09-19T22:47:51.013Z,1.80
2022-09-19T22:50:17.677Z,1.20
2022-09-19T22:52:44.844Z,1.70
2022-09-19T22:55:11.397Z,1.70
2022-09-19T22:57:37.936Z,1.90
2022-09-19T23:00:05.736Z,1.58
2022-09-19T23:02:33.698Z,1.73
2022-09-19T23:05:00.348Z,1.83
2022-09-19T23:07:28.028Z,2.03
2022-09-19T23:09:54.553Z,2.22
2022-09-19T23:12:21.085Z,1.80
2022-09-19T23:14:47.616Z,2.05
2022-09-19T23:17:14.169Z,1.90
2022-09-19T23:19:40.665Z,2.17
2022-09-19T23:22:07.241Z,2.10
2022-09-19T23:24:34.140Z,1.92
2022-09-19T23:27:00.830Z,1.95
2022-09-19T23:29:28.076Z,2.00
2022-09-19T23:31:54.772Z,1.98
2022-09-19T23:34:21.789Z,2.80
2022-09-19T23:36:49.342Z,2.08
2022-09-19T23:39:16.053Z,2.10
2022-09-19T23:41:42.819Z,1.75
2022-09-19T23:44:09.446Z,1.95
2022-09-19T23:46:36.051Z,1.90
2022-09-19T23:49:03.604Z,1.85
2022-09-19T23:51:30.746Z,2.33
2022-09-19T23:53:58.891Z,2.28
2022-09-19T23:56:28.290Z,1.77
2022-09-19T23:58:55.524Z,2.00
